Avoca, New York
Current Conditions -  °F | °C
As of 9:54 PM on Saturday 20 Dec 2014 (Local Time) from KDSV Reporting Station
Overcast Overcast  
Wind Chill: 30°   Ceiling: 2400
Heat Index: 30°   Visibility: 10mi
Dew Point: 21°   Wind: 3mph
Humidity: 69%   Direction: 320°NW
Pressure: 30.28"   Gusts: NA
Location:  42.41°N, 77.42°W
Report Text: KDSV 210254Z AUTO 32003KT 10SM OVC024 M01/M06 A3028 RMK AO2 SLP269 T10111061 53002
Loading
Personal Weather Stations






























Interactive Weather Map New forecast layout! Learn more

10-Day Weather Forecast

Advertisements
Track Severe Weather on mobile